createdAt,value
2023-05-08T00:00:11.264Z,90.21
2023-05-08T00:01:11.040Z,90.11
2023-05-08T00:02:11.053Z,90.21
2023-05-08T00:03:11.063Z,90.21
2023-05-08T00:04:11.189Z,90.36
2023-05-08T00:05:10.924Z,90.77
2023-05-08T00:06:10.906Z,90.92
2023-05-08T00:07:10.925Z,90.00
2023-05-08T00:08:10.865Z,90.62
2023-05-08T00:09:10.893Z,90.62
2023-05-08T00:10:11.064Z,91.03
2023-05-08T00:11:11.091Z,90.62
2023-05-08T00:12:10.755Z,91.13
2023-05-08T00:13:10.904Z,91.17
2023-05-08T00:14:10.836Z,90.82
2023-05-08T00:15:10.702Z,90.97
2023-05-08T00:16:10.729Z,90.92
2023-05-08T00:17:10.665Z,91.07
2023-05-08T00:18:10.618Z,90.31
2023-05-08T00:19:10.646Z,90.21
2023-05-08T00:20:10.715Z,91.27
2023-05-08T00:21:10.537Z,90.56
2023-05-08T00:22:10.504Z,90.21
2023-05-08T00:23:10.441Z,90.41
2023-05-08T00:24:10.436Z,90.31
2023-05-08T00:25:10.428Z,90.11
2023-05-08T00:26:10.373Z,90.41
2023-05-08T00:27:10.317Z,90.97
2023-05-08T00:28:10.293Z,90.72
2023-05-08T00:29:10.257Z,90.86
2023-05-08T00:30:10.452Z,91.07
2023-05-08T00:31:10.194Z,90.15
2023-05-08T00:32:10.240Z,90.15
2023-05-08T00:33:10.191Z,89.94
2023-05-08T00:34:10.202Z,90.25
2023-05-08T00:35:10.109Z,90.15
2023-05-08T00:36:10.094Z,90.45
2023-05-08T00:37:10.031Z,90.25
2023-05-08T00:38:10.032Z,90.25
2023-05-08T00:39:10.045Z,90.25
2023-05-08T00:40:10.043Z,90.15
2023-05-08T00:41:09.947Z,90.36
2023-05-08T00:42:09.974Z,90.25
2023-05-08T00:43:09.916Z,90.15
2023-05-08T00:44:09.925Z,90.05
2023-05-08T00:45:09.836Z,90.15
2023-05-08T00:46:09.944Z,90.15
2023-05-08T00:47:09.776Z,90.15
2023-05-08T00:48:09.826Z,90.25
2023-05-08T00:49:09.737Z,90.15
2023-05-08T00:50:09.940Z,90.77
2023-05-08T00:51:09.705Z,91.17
2023-05-08T00:52:09.671Z,90.56
2023-05-08T00:53:09.712Z,90.25
2023-05-08T00:54:09.642Z,89.80
2023-05-08T00:55:09.590Z,91.13
2023-05-08T00:56:09.557Z,90.36
2023-05-08T00:57:09.536Z,90.05
2023-05-08T00:58:09.655Z,90.66
2023-05-08T00:59:09.521Z,91.07
2023-05-08T01:00:09.582Z,89.94
2023-05-08T01:01:09.505Z,90.66
2023-05-08T01:02:09.428Z,90.97
2023-05-08T01:03:09.455Z,91.07
2023-05-08T01:04:09.440Z,91.07
2023-05-08T01:05:09.350Z,90.86
2023-05-08T01:06:09.362Z,90.86
2023-05-08T01:07:09.300Z,90.97
2023-05-08T01:08:09.269Z,90.25
2023-05-08T01:09:09.331Z,89.84
2023-05-08T01:10:09.212Z,90.77
2023-05-08T01:11:09.187Z,90.36
2023-05-08T01:12:09.183Z,90.97
2023-05-08T01:13:09.188Z,90.25
2023-05-08T01:14:09.238Z,90.25
2023-05-08T01:15:09.091Z,90.25
2023-05-08T01:16:09.174Z,90.05
2023-05-08T01:17:09.207Z,90.05
2023-05-08T01:18:09.074Z,90.15
2023-05-08T01:19:09.006Z,90.45
2023-05-08T01:20:09.024Z,90.36
2023-05-08T01:21:09.020Z,90.25
2023-05-08T01:22:08.907Z,90.25
2023-05-08T01:23:08.913Z,90.45
2023-05-08T01:24:08.885Z,90.05
2023-05-08T01:25:08.877Z,91.07
2023-05-08T01:26:08.810Z,91.07
2023-05-08T01:27:08.795Z,90.91
2023-05-08T01:28:08.821Z,90.36
2023-05-08T01:29:08.733Z,90.15
2023-05-08T01:30:08.790Z,90.15
2023-05-08T01:31:08.688Z,89.84
2023-05-08T01:32:08.675Z,90.60
2023-05-08T01:33:08.821Z,90.39
2023-05-08T01:34:08.744Z,89.98
2023-05-08T01:35:08.618Z,90.91
2023-05-08T01:36:08.594Z,90.09
2023-05-08T01:37:08.582Z,90.60
2023-05-08T01:38:08.600Z,91.01
2023-05-08T01:39:08.513Z,90.39
2023-05-08T01:40:08.513Z,90.81
2023-05-08T01:41:08.488Z,91.11
2023-05-08T01:42:08.541Z,90.91
2023-05-08T01:43:08.474Z,91.01
2023-05-08T01:44:08.404Z,91.01
2023-05-08T01:45:08.384Z,90.91
2023-05-08T01:46:08.438Z,91.22
2023-05-08T01:47:08.504Z,91.22
2023-05-08T01:48:08.412Z,90.91
2023-05-08T01:49:08.293Z,91.01
2023-05-08T01:50:08.265Z,91.31
2023-05-08T01:51:08.252Z,91.31
2023-05-08T01:52:08.312Z,91.11
2023-05-08T01:53:08.197Z,90.60
2023-05-08T01:54:10.095Z,90.39
2023-05-08T01:55:08.155Z,90.09
2023-05-08T01:56:08.135Z,90.19
2023-05-08T01:57:08.171Z,90.91
2023-05-08T01:58:08.091Z,91.22
2023-05-08T01:59:08.119Z,90.81
2023-05-08T02:00:08.098Z,91.22
2023-05-08T02:01:08.060Z,90.81
2023-05-08T02:02:08.116Z,91.01
2023-05-08T02:03:08.114Z,90.81
2023-05-08T02:04:08.108Z,90.50
2023-05-08T02:05:07.946Z,91.11
2023-05-08T02:06:07.924Z,91.22
2023-05-08T02:07:07.868Z,91.26
2023-05-08T02:08:07.848Z,91.36
2023-05-08T02:09:07.902Z,91.05
2023-05-08T02:10:07.798Z,91.36
2023-05-08T02:11:07.802Z,91.46
2023-05-08T02:12:07.769Z,90.91
2023-05-08T02:13:07.858Z,90.70
2023-05-08T02:14:07.800Z,90.84
2023-05-08T02:15:07.734Z,91.05
2023-05-08T02:16:07.772Z,91.36
2023-05-08T02:17:07.695Z,91.36
2023-05-08T02:18:07.747Z,91.26
2023-05-08T02:19:07.670Z,90.95
2023-05-08T02:20:07.688Z,90.64
2023-05-08T02:21:07.574Z,90.64
2023-05-08T02:22:07.549Z,91.46
2023-05-08T02:23:07.527Z,90.95
2023-05-08T02:24:07.564Z,91.05
2023-05-08T02:25:07.476Z,90.54
2023-05-08T02:26:07.506Z,90.95
2023-05-08T02:27:07.455Z,90.34
2023-05-08T02:28:07.437Z,90.95
2023-05-08T02:29:07.479Z,91.46
2023-05-08T02:30:07.372Z,91.56
2023-05-08T02:31:07.349Z,91.26
2023-05-08T02:32:07.436Z,90.95
2023-05-08T02:33:07.361Z,91.36
2023-05-08T02:34:07.422Z,91.26
2023-05-08T02:35:07.251Z,91.16
2023-05-08T02:36:07.221Z,90.84
2023-05-08T02:37:07.181Z,91.05
2023-05-08T02:38:07.211Z,90.64
2023-05-08T02:39:07.161Z,91.05
2023-05-08T02:40:07.096Z,90.95
2023-05-08T02:41:07.085Z,91.36
2023-05-08T02:42:07.050Z,91.36
2023-05-08T02:43:07.082Z,91.26
2023-05-08T02:44:07.018Z,91.26
2023-05-08T02:45:06.993Z,91.46
2023-05-08T02:46:07.122Z,91.36
2023-05-08T02:47:07.461Z,91.26
2023-05-08T02:48:07.090Z,91.05
2023-05-08T02:49:06.933Z,91.16
2023-05-08T02:50:06.998Z,91.36
2023-05-08T02:51:06.912Z,91.56
2023-05-08T02:52:06.887Z,91.56
2023-05-08T02:53:06.931Z,91.26
2023-05-08T02:54:06.835Z,91.11
2023-05-08T02:55:06.887Z,91.26
2023-05-08T02:56:06.801Z,91.16
2023-05-08T02:57:06.827Z,90.95
2023-05-08T02:58:06.818Z,91.16
2023-05-08T02:59:06.746Z,91.05
2023-05-08T03:00:06.786Z,91.05
2023-05-08T03:01:06.808Z,91.36
2023-05-08T03:02:06.659Z,90.75
2023-05-08T03:03:06.778Z,90.95
2023-05-08T03:04:06.633Z,90.84
2023-05-08T03:05:06.581Z,91.05
2023-05-08T03:06:06.593Z,90.84
2023-05-08T03:07:06.637Z,91.36
2023-05-08T03:08:06.600Z,91.36
2023-05-08T03:09:06.532Z,91.46
2023-05-08T03:10:06.557Z,91.56
2023-05-08T03:11:06.464Z,91.36
2023-05-08T03:12:06.457Z,91.46
2023-05-08T03:13:06.440Z,91.77
2023-05-08T03:14:06.484Z,91.56
2023-05-08T03:15:06.463Z,91.16
2023-05-08T03:16:06.440Z,91.16
2023-05-08T03:17:06.372Z,91.56
2023-05-08T03:18:06.791Z,91.40
2023-05-08T03:19:06.289Z,91.56
2023-05-08T03:20:06.345Z,91.26
2023-05-08T03:21:06.345Z,91.40
2023-05-08T03:22:11.188Z,91.05
2023-05-08T03:23:06.249Z,91.56
2023-05-08T03:24:06.295Z,90.95
2023-05-08T03:25:06.206Z,91.20
2023-05-08T03:26:06.175Z,91.56
2023-05-08T03:27:06.161Z,91.20
2023-05-08T03:28:06.147Z,91.05
2023-05-08T03:29:06.205Z,91.26
2023-05-08T03:30:06.101Z,91.46
2023-05-08T03:31:06.141Z,91.26
2023-05-08T03:32:06.068Z,91.61
2023-05-08T03:33:06.099Z,91.30
2023-05-08T03:34:06.083Z,91.30
2023-05-08T03:35:06.003Z,91.50
2023-05-08T03:36:06.060Z,91.91
2023-05-08T03:37:05.981Z,91.82
2023-05-08T03:38:05.965Z,91.61
2023-05-08T03:39:05.916Z,91.50
2023-05-08T03:40:05.908Z,91.61
2023-05-08T03:41:05.936Z,91.91
2023-05-08T03:42:05.970Z,91.82
2023-05-08T03:43:05.839Z,91.82
2023-05-08T03:44:05.874Z,91.91
2023-05-08T03:45:05.797Z,92.12
2023-05-08T03:46:05.827Z,91.91
2023-05-08T03:47:05.851Z,91.71
2023-05-08T03:48:05.759Z,92.22
2023-05-08T03:49:05.690Z,92.02
2023-05-08T03:50:05.674Z,92.32
2023-05-08T03:51:05.728Z,92.32
2023-05-08T03:52:05.630Z,92.22
2023-05-08T03:53:05.623Z,91.82
2023-05-08T03:54:05.702Z,92.43
2023-05-08T03:55:05.590Z,91.91
2023-05-08T03:56:05.632Z,91.71
2023-05-08T03:57:05.582Z,91.71
2023-05-08T03:58:05.535Z,92.12
2023-05-08T03:59:05.506Z,91.40
2023-05-08T04:00:05.518Z,91.71
2023-05-08T04:01:05.566Z,92.32
2023-05-08T04:02:05.505Z,92.02
2023-05-08T04:03:05.526Z,91.61
2023-05-08T04:04:05.915Z,91.61
2023-05-08T04:05:05.422Z,91.82
2023-05-08T04:06:05.408Z,91.50
2023-05-08T04:07:05.434Z,91.71
2023-05-08T04:08:05.350Z,91.50
2023-05-08T04:09:05.336Z,92.12
2023-05-08T04:10:05.329Z,92.22
2023-05-08T04:11:05.302Z,91.71
2023-05-08T04:12:05.368Z,91.61
2023-05-08T04:13:05.312Z,91.61
2023-05-08T04:14:05.230Z,91.09
2023-05-08T04:15:05.214Z,91.40
2023-05-08T04:16:05.211Z,91.40
2023-05-08T04:17:05.267Z,91.50
2023-05-08T04:18:05.221Z,91.71
2023-05-08T04:19:05.135Z,91.82
2023-05-08T04:20:05.108Z,91.61
2023-05-08T04:21:05.075Z,91.82
2023-05-08T04:22:05.114Z,91.82
2023-05-08T04:23:05.066Z,91.71
2023-05-08T04:24:05.003Z,91.50
2023-05-08T04:25:05.014Z,91.71
2023-05-08T04:26:05.619Z,92.32
2023-05-08T04:27:04.973Z,92.12
2023-05-08T04:28:04.976Z,91.82
2023-05-08T04:29:04.941Z,91.71
2023-05-08T04:30:04.935Z,91.87
2023-05-08T04:31:04.837Z,91.16
2023-05-08T04:32:04.866Z,91.50
2023-05-08T04:33:04.843Z,91.61
2023-05-08T04:34:04.804Z,91.77
2023-05-08T04:35:04.887Z,91.87
2023-05-08T04:36:04.755Z,91.91
2023-05-08T04:37:04.732Z,91.61
2023-05-08T04:38:04.785Z,91.67
2023-05-08T04:39:04.677Z,92.02
2023-05-08T04:40:04.705Z,92.28
2023-05-08T04:41:04.701Z,91.77
2023-05-08T04:42:05.014Z,91.77
2023-05-08T04:43:04.634Z,92.08
2023-05-08T04:44:04.582Z,91.77
2023-05-08T04:45:04.520Z,91.46
2023-05-08T04:46:04.539Z,92.18
2023-05-08T04:47:04.530Z,91.26
2023-05-08T04:48:04.622Z,91.67
2023-05-08T04:49:04.446Z,91.67
2023-05-08T04:50:04.490Z,92.08
2023-05-08T04:51:04.406Z,91.83
2023-05-08T04:52:04.374Z,91.11
2023-05-08T04:53:04.377Z,91.31
2023-05-08T04:54:04.391Z,91.42
2023-05-08T04:55:04.305Z,91.31
2023-05-08T04:56:04.296Z,91.01
2023-05-08T04:57:04.280Z,90.50
2023-05-08T04:58:04.275Z,90.05
2023-05-08T04:59:04.330Z,89.64
2023-05-08T05:00:04.208Z,89.84
2023-05-08T05:01:04.188Z,89.50
2023-05-08T05:02:04.229Z,89.29
2023-05-08T05:03:04.203Z,89.39
2023-05-08T05:04:04.215Z,89.18
2023-05-08T05:05:04.055Z,89.25
2023-05-08T05:06:04.032Z,89.04
2023-05-08T05:07:03.990Z,88.74
2023-05-08T05:08:03.972Z,88.79
2023-05-08T05:09:03.985Z,88.90
2023-05-08T05:10:03.905Z,88.08
2023-05-08T05:11:03.882Z,87.57
2023-05-08T05:12:03.859Z,87.73
2023-05-08T05:13:03.850Z,87.32
2023-05-08T05:14:03.817Z,86.82
2023-05-08T05:15:03.732Z,87.18
2023-05-08T05:16:03.713Z,86.06
2023-05-08T05:17:03.651Z,84.83
2023-05-08T05:18:03.710Z,85.35
2023-05-08T05:19:04.377Z,85.51
2023-05-08T05:20:03.596Z,84.69
2023-05-08T05:21:03.501Z,84.18
2023-05-08T05:22:03.473Z,84.14
2023-05-08T05:23:03.431Z,83.23
2023-05-08T05:24:03.433Z,83.33
2023-05-08T05:25:03.395Z,84.45
2023-05-08T05:26:03.273Z,84.25
2023-05-08T05:27:03.241Z,84.00
2023-05-08T05:28:03.285Z,83.29
2023-05-08T05:29:03.157Z,82.47
2023-05-08T05:30:03.174Z,82.98
2023-05-08T05:31:03.079Z,82.43
2023-05-08T05:32:03.008Z,82.23
2023-05-08T05:33:03.088Z,82.13
2023-05-08T05:34:02.916Z,81.62
2023-05-08T05:35:02.873Z,80.91
2023-05-08T05:36:02.889Z,81.01
2023-05-08T05:37:02.785Z,81.82
2023-05-08T05:38:02.780Z,82.13
2023-05-08T05:39:02.662Z,81.93
2023-05-08T05:40:02.633Z,81.93
2023-05-08T05:41:02.589Z,82.07
2023-05-08T05:42:02.576Z,82.47
2023-05-08T05:43:02.495Z,82.33
2023-05-08T05:44:02.425Z,82.33
2023-05-08T05:45:02.351Z,82.54
2023-05-08T05:46:02.337Z,81.56
2023-05-08T05:47:02.374Z,81.21
2023-05-08T05:48:02.275Z,82.13
2023-05-08T05:49:02.190Z,82.64
2023-05-08T05:50:02.121Z,81.58
2023-05-08T05:51:02.064Z,82.13
2023-05-08T05:52:02.063Z,82.54
2023-05-08T05:53:01.963Z,82.68
2023-05-08T05:54:01.905Z,82.64
2023-05-08T05:55:01.883Z,82.33
2023-05-08T05:56:01.854Z,82.03
2023-05-08T05:57:01.756Z,81.62
2023-05-08T05:58:01.748Z,81.52
2023-05-08T05:59:01.647Z,81.72
2023-05-08T06:00:01.643Z,82.03
2023-05-08T06:01:01.679Z,82.57
2023-05-08T06:02:01.659Z,82.47
2023-05-08T06:03:01.633Z,82.07
2023-05-08T06:04:01.515Z,82.57
2023-05-08T06:05:01.413Z,82.68
2023-05-08T06:06:01.288Z,82.68
2023-05-08T06:07:01.306Z,82.57
2023-05-08T06:08:01.189Z,82.17
2023-05-08T06:09:01.107Z,82.68
2023-05-08T06:10:01.075Z,82.51
2023-05-08T06:11:00.999Z,82.68
2023-05-08T06:12:01.035Z,83.18
2023-05-08T06:13:00.924Z,83.18
2023-05-08T06:14:00.878Z,83.29
2023-05-08T06:15:00.807Z,83.70
2023-05-08T06:16:00.841Z,83.18
2023-05-08T06:17:00.821Z,82.47
2023-05-08T06:18:00.754Z,83.25
2023-05-08T06:19:00.598Z,83.56
2023-05-08T06:20:00.565Z,84.27
2023-05-08T06:21:00.545Z,84.27
2023-05-08T06:22:00.504Z,84.27
2023-05-08T06:23:00.376Z,82.90
2023-05-08T06:24:00.339Z,82.70
2023-05-08T06:25:00.268Z,82.70
2023-05-08T06:26:00.334Z,82.80
2023-05-08T06:27:00.130Z,82.60
2023-05-08T06:28:00.194Z,82.19
2023-05-08T06:28:59.989Z,81.79
2023-05-08T06:29:59.929Z,81.99
2023-05-08T06:30:59.992Z,81.68
2023-05-08T06:31:59.810Z,82.50
2023-05-08T06:32:59.807Z,82.60
2023-05-08T06:33:59.730Z,82.50
2023-05-08T06:34:59.699Z,83.07
2023-05-08T06:35:59.665Z,83.48
2023-05-08T06:36:59.514Z,84.09
2023-05-08T06:37:59.449Z,84.09
2023-05-08T06:38:59.444Z,83.84
2023-05-08T06:40:10.796Z,83.03
2023-05-08T06:41:00.273Z,83.03
2023-05-08T06:41:59.184Z,82.73
2023-05-08T06:42:59.215Z,81.87
2023-05-08T06:43:59.113Z,81.67
2023-05-08T06:44:59.016Z,80.55
2023-05-08T06:45:58.976Z,80.18
2023-05-08T06:46:58.869Z,81.16
2023-05-08T06:47:58.891Z,81.06
2023-05-08T06:48:58.745Z,81.67
2023-05-08T06:49:58.753Z,81.77
2023-05-08T06:50:58.613Z,81.57
2023-05-08T06:51:58.559Z,82.48
2023-05-08T06:52:58.499Z,82.45
2023-05-08T06:53:58.502Z,82.34
2023-05-08T06:54:58.462Z,81.73
2023-05-08T06:55:58.296Z,80.92
2023-05-08T06:56:58.247Z,80.92
2023-05-08T06:57:58.187Z,81.33
2023-05-08T06:59:07.768Z,81.63
2023-05-08T06:59:59.080Z,81.84
2023-05-08T07:00:58.704Z,82.04
2023-05-08T07:01:57.978Z,80.85
2023-05-08T07:02:57.889Z,80.31
2023-05-08T07:03:57.820Z,80.82
2023-05-08T07:04:57.763Z,80.82
2023-05-08T07:05:57.751Z,81.23
2023-05-08T07:06:57.583Z,80.55
2023-05-08T07:07:57.494Z,80.51
2023-05-08T07:08:57.520Z,80.41
2023-05-08T07:09:57.400Z,80.11
2023-05-08T07:10:57.394Z,80.62
2023-05-08T07:11:57.246Z,80.51
2023-05-08T07:12:57.318Z,80.41
2023-05-08T07:13:57.127Z,81.43
2023-05-08T07:14:57.988Z,81.84
2023-05-08T07:15:57.073Z,81.12
2023-05-08T07:16:57.006Z,81.84
2023-05-08T07:17:56.947Z,80.82
2023-05-08T07:18:56.817Z,80.98
2023-05-08T07:19:57.261Z,82.20
2023-05-08T07:20:56.724Z,81.73
2023-05-08T07:21:56.644Z,81.70
2023-05-08T07:22:56.538Z,81.79
2023-05-08T07:23:56.511Z,82.10
2023-05-08T07:24:56.453Z,81.79
2023-05-08T07:25:56.333Z,81.76
2023-05-08T07:26:56.330Z,81.25
2023-05-08T07:27:56.182Z,80.24
2023-05-08T07:28:56.127Z,80.13
2023-05-08T07:29:56.075Z,79.90
2023-05-08T07:30:56.006Z,80.80
2023-05-08T07:31:56.059Z,80.40
2023-05-08T07:32:55.881Z,79.79
2023-05-08T07:33:55.768Z,80.03
2023-05-08T07:34:55.698Z,80.33
2023-05-08T07:35:55.645Z,79.79
2023-05-08T07:36:55.634Z,79.79
2023-05-08T07:37:55.578Z,79.72
2023-05-08T07:38:55.420Z,79.63
2023-05-08T07:39:55.359Z,79.93
2023-05-08T07:40:55.294Z,80.50
2023-05-08T07:41:55.335Z,79.63
2023-05-08T07:42:55.156Z,79.83
2023-05-08T07:43:55.159Z,80.03
2023-05-08T07:44:55.427Z,79.93
2023-05-08T07:45:54.955Z,81.11
2023-05-08T07:46:54.933Z,81.41
2023-05-08T07:47:54.983Z,81.11
2023-05-08T07:48:54.803Z,81.21
2023-05-08T07:49:54.735Z,81.88
2023-05-08T07:50:54.604Z,79.65
2023-05-08T07:51:54.540Z,79.45
2023-05-08T07:52:54.457Z,78.60
2023-05-08T07:53:54.598Z,79.31
2023-05-08T07:54:54.325Z,78.70
2023-05-08T07:55:54.238Z,79.38
2023-05-08T07:56:54.163Z,79.47
2023-05-08T07:57:54.115Z,80.29
2023-05-08T07:58:54.073Z,79.58
2023-05-08T07:59:53.916Z,77.82
2023-05-08T08:00:53.825Z,79.44
2023-05-08T08:01:53.893Z,79.54
2023-05-08T08:02:53.876Z,78.83
2023-05-08T08:03:53.674Z,77.82
2023-05-08T08:04:53.553Z,77.92
2023-05-08T08:05:53.429Z,78.39
2023-05-08T08:06:53.421Z,79.50
2023-05-08T08:07:53.293Z,79.67
2023-05-08T08:08:53.185Z,78.25
2023-05-08T08:09:53.260Z,79.36
2023-05-08T08:10:53.040Z,78.42
2023-05-08T08:11:52.907Z,79.16
2023-05-08T08:12:52.842Z,77.81
2023-05-08T08:13:52.785Z,77.91
2023-05-08T08:14:52.704Z,77.50
2023-05-08T08:15:52.549Z,78.08
2023-05-08T08:16:52.513Z,75.95
2023-05-08T08:17:52.400Z,76.56
2023-05-08T08:18:52.347Z,75.85
2023-05-08T08:19:52.201Z,76.35
2023-05-08T08:20:52.136Z,77.64
2023-05-08T08:21:52.012Z,77.33
2023-05-08T08:22:51.895Z,77.29
2023-05-08T08:23:51.805Z,77.90
2023-05-08T08:24:54.181Z,76.48
2023-05-08T08:25:51.636Z,77.19
2023-05-08T08:26:51.536Z,76.08
2023-05-08T08:27:51.425Z,75.98
2023-05-08T08:28:51.311Z,75.98
2023-05-08T08:29:56.359Z,75.54
2023-05-08T08:30:52.220Z,76.75
2023-05-08T08:31:51.038Z,77.56
2023-05-08T08:32:50.972Z,77.26
2023-05-08T08:33:50.870Z,75.71
2023-05-08T08:34:50.716Z,75.60
2023-05-08T08:35:50.670Z,74.80
2023-05-08T08:36:50.587Z,74.49
2023-05-08T08:37:50.437Z,75.40
2023-05-08T08:38:50.290Z,75.51
2023-05-08T08:39:50.214Z,76.21
2023-05-08T08:40:50.153Z,77.02
2023-05-08T08:41:50.164Z,76.21
2023-05-08T08:42:49.873Z,75.91
2023-05-08T08:43:49.797Z,76.31
2023-05-08T08:44:49.681Z,76.82
2023-05-08T08:45:49.568Z,76.21
2023-05-08T08:46:49.548Z,76.21
2023-05-08T08:47:49.450Z,76.31
2023-05-08T08:48:49.284Z,74.46
2023-05-08T08:49:49.150Z,75.91
2023-05-08T08:50:49.085Z,75.98
2023-05-08T08:51:48.954Z,75.81
2023-05-08T08:52:49.014Z,76.72
2023-05-08T08:53:48.757Z,76.51
2023-05-08T08:54:48.658Z,76.72
2023-05-08T08:55:48.558Z,76.58
2023-05-08T08:56:48.481Z,76.38
2023-05-08T08:57:48.592Z,75.98
2023-05-08T08:58:48.267Z,74.46
2023-05-08T08:59:49.244Z,74.87
2023-05-08T09:00:49.116Z,75.34
2023-05-08T09:01:48.031Z,75.74
2023-05-08T09:02:47.992Z,74.83
2023-05-08T09:04:09.170Z,75.84
2023-05-08T09:04:47.638Z,75.94
2023-05-08T09:05:47.534Z,74.83
2023-05-08T09:06:47.437Z,76.44
2023-05-08T09:07:47.406Z,75.03
2023-05-08T09:08:47.203Z,75.74
2023-05-08T09:09:47.104Z,76.34
2023-05-08T09:10:47.019Z,75.54
2023-05-08T09:11:46.899Z,75.23
2023-05-08T09:12:46.887Z,74.02
2023-05-08T09:13:46.786Z,74.52
2023-05-08T09:14:46.556Z,75.23
2023-05-08T09:15:46.443Z,74.93
2023-05-08T09:16:46.439Z,75.43
2023-05-08T09:17:46.324Z,74.96
2023-05-08T09:18:46.152Z,76.88
2023-05-08T09:19:46.020Z,77.28
2023-05-08T09:20:46.237Z,76.68
2023-05-08T09:21:45.840Z,76.18
2023-05-08T09:22:45.807Z,78.70
2023-05-08T09:23:45.644Z,79.06
2023-05-08T09:24:45.519Z,77.04
2023-05-08T09:25:45.437Z,77.15
2023-05-08T09:26:45.316Z,77.25
2023-05-08T09:27:45.311Z,77.66
2023-05-08T09:28:45.155Z,77.35
2023-05-08T09:29:45.122Z,76.54
2023-05-08T09:30:44.904Z,77.28
2023-05-08T09:31:44.875Z,78.06
2023-05-08T09:32:44.867Z,79.06
2023-05-08T09:33:44.601Z,78.96
2023-05-08T09:34:44.501Z,77.66
2023-05-08T09:35:44.445Z,77.35
2023-05-08T09:36:44.382Z,76.00
2023-05-08T09:37:44.252Z,77.11
2023-05-08T09:38:44.126Z,76.61
2023-05-08T09:39:44.351Z,76.87
2023-05-08T09:40:43.896Z,76.77
2023-05-08T09:41:43.875Z,77.28
2023-05-08T09:42:43.683Z,77.17
2023-05-08T09:43:43.580Z,77.44
2023-05-08T09:44:43.451Z,76.03
2023-05-08T09:45:44.811Z,74.73
2023-05-08T09:46:43.458Z,75.53
2023-05-08T09:47:43.165Z,75.79
2023-05-08T09:48:43.003Z,76.10
2023-05-08T09:49:42.883Z,76.50
2023-05-08T09:50:43.669Z,75.59
2023-05-08T09:51:43.065Z,75.76
2023-05-08T09:53:52.515Z,75.70
2023-05-08T09:54:52.343Z,75.70
2023-05-08T09:55:51.682Z,76.70
2023-05-08T09:57:12.814Z,74.99
2023-05-08T09:57:51.664Z,77.00
2023-05-08T09:59:12.638Z,75.79
2023-05-08T09:59:51.639Z,75.70
2023-05-08T10:00:51.851Z,76.67
2023-05-08T10:01:51.670Z,76.76
2023-05-08T10:02:51.791Z,76.56
2023-05-08T10:03:51.710Z,76.83
2023-05-08T10:04:51.701Z,75.86
2023-05-08T10:05:51.931Z,75.62
2023-05-08T10:06:51.753Z,76.73
2023-05-08T10:07:51.580Z,74.21
2023-05-08T10:08:51.638Z,74.92
2023-05-08T10:09:51.532Z,74.11
2023-05-08T10:10:51.527Z,74.41
2023-05-08T10:11:51.540Z,74.68
2023-05-08T10:12:52.031Z,75.09
2023-05-08T10:13:51.507Z,76.59
2023-05-08T10:14:51.491Z,75.49
2023-05-08T10:15:51.479Z,75.49
2023-05-08T10:16:51.668Z,75.05
2023-05-08T10:17:51.672Z,75.25
2023-05-08T10:18:52.600Z,73.54
2023-05-08T10:19:51.463Z,74.15
2023-05-08T10:20:51.422Z,74.15
2023-05-08T10:21:51.473Z,73.44
2023-05-08T10:22:51.961Z,74.44
2023-05-08T10:23:51.485Z,74.44
2023-05-08T10:24:51.379Z,75.05
2023-05-08T10:25:53.429Z,75.55
2023-05-08T10:27:05.076Z,75.05
2023-05-08T10:27:52.365Z,75.65
2023-05-08T10:28:51.580Z,74.55
2023-05-08T10:29:51.313Z,75.45
2023-05-08T10:30:51.431Z,75.31
2023-05-08T10:31:51.287Z,75.71
2023-05-08T10:32:51.460Z,73.81
2023-05-08T10:33:51.343Z,73.81
2023-05-08T10:34:51.271Z,75.01
2023-05-08T10:35:51.258Z,74.77
2023-05-08T10:36:53.355Z,73.97
2023-05-08T10:37:51.265Z,74.88
2023-05-08T10:38:51.296Z,73.77
2023-05-08T10:39:52.217Z,72.06
2023-05-08T10:40:51.219Z,72.87
2023-05-08T10:41:51.195Z,73.07
2023-05-08T10:42:51.178Z,72.94
2023-05-08T10:43:51.231Z,72.47
2023-05-08T10:44:51.229Z,75.04
2023-05-08T10:45:51.244Z,74.84
2023-05-08T10:46:51.194Z,74.44
2023-05-08T10:47:51.178Z,74.54
2023-05-08T10:48:51.133Z,74.94
2023-05-08T10:49:51.162Z,75.24
2023-05-08T10:50:51.113Z,74.54
2023-05-08T10:51:51.102Z,74.54
2023-05-08T10:52:51.121Z,74.04
2023-05-08T10:53:51.061Z,74.84
2023-05-08T10:54:51.127Z,76.04
2023-05-08T10:55:51.065Z,75.10
2023-05-08T10:56:51.027Z,75.60
2023-05-08T10:57:51.008Z,74.40
2023-05-08T10:58:51.034Z,73.90
2023-05-08T10:59:51.098Z,74.40
2023-05-08T11:00:51.000Z,73.77
2023-05-08T11:01:51.326Z,72.97
2023-05-08T11:02:51.023Z,73.36
2023-05-08T11:03:51.220Z,74.47
2023-05-08T11:04:51.051Z,72.36
2023-05-08T11:05:50.941Z,71.96
2023-05-08T11:06:51.143Z,73.57
2023-05-08T11:07:50.908Z,73.16
2023-05-08T11:08:50.964Z,73.57
2023-05-08T11:09:50.897Z,73.86
2023-05-08T11:10:50.911Z,72.86
2023-05-08T11:11:50.927Z,72.47
2023-05-08T11:12:50.889Z,72.97
2023-05-08T11:13:50.861Z,72.36
2023-05-08T11:14:50.893Z,72.47
2023-05-08T11:15:50.906Z,72.47
2023-05-08T11:16:50.829Z,72.27
2023-05-08T11:17:50.852Z,72.06
2023-05-08T11:18:50.889Z,71.56
2023-05-08T11:19:50.783Z,71.66
2023-05-08T11:20:50.792Z,72.86
2023-05-08T11:21:50.791Z,72.53
2023-05-08T11:22:50.808Z,72.83
2023-05-08T11:23:50.765Z,71.12
2023-05-08T11:24:50.763Z,71.63
2023-05-08T11:25:50.720Z,72.03
2023-05-08T11:26:50.733Z,72.93
2023-05-08T11:27:50.793Z,72.80
2023-05-08T11:28:50.783Z,72.19
2023-05-08T11:29:50.748Z,72.23
2023-05-08T11:30:50.692Z,72.00
2023-05-08T11:31:50.812Z,70.29
2023-05-08T11:32:50.674Z,70.53
2023-05-08T11:33:50.689Z,71.73
2023-05-08T11:34:50.653Z,72.63
2023-05-08T11:35:50.626Z,73.03
2023-05-08T11:36:50.639Z,71.73
2023-05-08T11:37:50.640Z,72.13
2023-05-08T11:38:50.661Z,71.23
2023-05-08T11:39:50.583Z,71.33
2023-05-08T11:40:50.584Z,69.93
2023-05-08T11:41:50.569Z,70.43
2023-05-08T11:42:50.576Z,70.39
2023-05-08T11:43:50.580Z,70.39
2023-05-08T11:44:50.605Z,72.00
2023-05-08T11:45:50.525Z,71.00
2023-05-08T11:46:50.641Z,69.49
2023-05-08T11:47:50.598Z,70.29
2023-05-08T11:48:50.494Z,69.39
2023-05-08T11:49:50.498Z,71.66
2023-05-08T11:50:50.461Z,71.46
2023-05-08T11:51:50.467Z,70.76
2023-05-08T11:52:50.589Z,70.26
2023-05-08T11:53:50.443Z,69.86
2023-05-08T11:54:50.487Z,69.26
2023-05-08T11:55:50.431Z,69.46
2023-05-08T11:56:50.729Z,69.56
2023-05-08T11:57:50.405Z,70.76
2023-05-08T11:58:50.380Z,69.66
2023-05-08T11:59:50.438Z,70.50
2023-05-08T12:00:50.419Z,70.79
2023-05-08T12:02:06.860Z,71.09
2023-05-08T12:02:51.448Z,71.33
2023-05-08T12:03:50.569Z,71.73
2023-05-08T12:04:50.445Z,71.63
2023-05-08T12:05:50.387Z,72.27
2023-05-08T12:06:50.295Z,73.27
2023-05-08T12:07:50.317Z,74.27
2023-05-08T12:08:50.291Z,72.77
2023-05-08T12:09:50.327Z,73.47
2023-05-08T12:10:50.279Z,73.16
2023-05-08T12:11:50.246Z,73.57
2023-05-08T12:12:50.295Z,73.27
2023-05-08T12:13:50.276Z,74.37
2023-05-08T12:14:50.266Z,74.37
2023-05-08T12:15:50.194Z,73.47
2023-05-08T12:16:50.216Z,73.10
2023-05-08T12:17:50.271Z,73.36
2023-05-08T12:18:50.192Z,73.10
2023-05-08T12:19:50.237Z,73.70
2023-05-08T12:20:50.216Z,73.70
2023-05-08T12:21:50.219Z,73.27
2023-05-08T12:22:50.171Z,72.70
2023-05-08T12:23:50.135Z,73.50
2023-05-08T12:24:50.169Z,72.80
2023-05-08T12:25:50.115Z,73.80
2023-05-08T12:26:50.131Z,75.31
2023-05-08T12:27:50.070Z,75.47
2023-05-08T12:28:50.067Z,73.97
2023-05-08T12:29:50.061Z,73.47
2023-05-08T12:30:50.355Z,73.07
2023-05-08T12:31:50.103Z,73.36
2023-05-08T12:32:50.130Z,73.07
2023-05-08T12:33:50.009Z,72.47
2023-05-08T12:34:50.017Z,72.97
2023-05-08T12:35:50.003Z,72.56
2023-05-08T12:36:50.056Z,72.56
2023-05-08T12:37:49.991Z,73.07
2023-05-08T12:38:49.981Z,73.13
2023-05-08T12:39:49.957Z,73.27
2023-05-08T12:40:50.058Z,75.04
2023-05-08T12:41:49.969Z,75.43
2023-05-08T12:42:50.058Z,73.13
2023-05-08T12:43:49.927Z,72.33
2023-05-08T12:44:49.898Z,72.50
2023-05-08T12:45:49.888Z,71.30
2023-05-08T12:46:49.924Z,72.50
2023-05-08T12:47:50.037Z,71.30
2023-05-08T12:48:49.855Z,72.09
2023-05-08T12:49:49.886Z,69.89
2023-05-08T12:50:49.841Z,70.39
2023-05-08T12:51:49.821Z,69.39
2023-05-08T12:52:51.490Z,69.89